McCalla, Alabama
Current Conditions -  °F | °C
As of 3:42 AM on Monday 24 Nov 2014 (Local Time) from KEET Reporting Station
Overcast Overcast  
Wind Chill: 65°   Ceiling: 1600
Heat Index: 65°   Visibility: 10mi
Dew Point: 61°   Wind: 10mph
Humidity: 87%   Direction: 200°SSW
Pressure: 29.71"   Gusts: 20mph
Location:  33.35°N, 87.01°W
Report Text: KEET 240942Z AUTO 20009G17KT 10SM OVC016 18/16 A2971 RMK AO2 T01830161
Loading
Personal Weather Stations






























Interactive Weather Map New forecast layout! Learn more

10-Day Weather Forecast

Advertisements
Track Severe Weather on mobile